sensor_id;sensor_type;location;lat;lon;timestamp;P1;durP1;ratioP1;P2;durP2;ratioP2
75890;SDS011;64571;47.512;19.054;2023-02-23T00:03:02;24.92;;;9.43;;
75890;SDS011;64571;47.512;19.054;2023-02-23T00:06:06;24.50;;;10.30;;
75890;SDS011;64571;47.512;19.054;2023-02-23T00:09:09;21.30;;;9.15;;
75890;SDS011;64571;47.512;19.054;2023-02-23T00:12:25;28.98;;;9.73;;
75890;SDS011;64571;47.512;19.054;2023-02-23T00:15:28;25.20;;;9.85;;
75890;SDS011;64571;47.512;19.054;2023-02-23T00:18:31;21.85;;;9.40;;
75890;SDS011;64571;47.512;19.054;2023-02-23T00:21:45;22.43;;;10.03;;
75890;SDS011;64571;47.512;19.054;2023-02-23T00:24:48;23.58;;;10.07;;
75890;SDS011;64571;47.512;19.054;2023-02-23T00:27:51;22.55;;;10.15;;
75890;SDS011;64571;47.512;19.054;2023-02-23T00:30:54;25.20;;;9.50;;
75890;SDS011;64571;47.512;19.054;2023-02-23T00:34:01;22.73;;;8.40;;
75890;SDS011;64571;47.512;19.054;2023-02-23T00:37:05;18.80;;;7.70;;
75890;SDS011;64571;47.512;19.054;2023-02-23T00:40:09;22.70;;;8.27;;
75890;SDS011;64571;47.512;19.054;2023-02-23T00:43:17;17.12;;;6.62;;
75890;SDS011;64571;47.512;19.054;2023-02-23T00:46:22;17.67;;;7.32;;
75890;SDS011;64571;47.512;19.054;2023-02-23T00:49:28;16.33;;;6.47;;
75890;SDS011;64571;47.512;19.054;2023-02-23T00:52:30;16.53;;;6.83;;
75890;SDS011;64571;47.512;19.054;2023-02-23T00:55:39;17.92;;;6.65;;
75890;SDS011;64571;47.512;19.054;2023-02-23T00:58:43;19.60;;;7.65;;
75890;SDS011;64571;47.512;19.054;2023-02-23T01:01:46;20.55;;;7.78;;
75890;SDS011;64571;47.512;19.054;2023-02-23T01:04:51;18.37;;;7.12;;
75890;SDS011;64571;47.512;19.054;2023-02-23T01:07:53;20.90;;;6.97;;
75890;SDS011;64571;47.512;19.054;2023-02-23T01:10:57;23.08;;;7.50;;
75890;SDS011;64571;47.512;19.054;2023-02-23T01:14:00;26.15;;;7.93;;
75890;SDS011;64571;47.512;19.054;2023-02-23T01:17:02;20.25;;;7.20;;
75890;SDS011;64571;47.512;19.054;2023-02-23T01:20:05;20.65;;;7.03;;
75890;SDS011;64571;47.512;19.054;2023-02-23T01:23:37;21.50;;;6.73;;
75890;SDS011;64571;47.512;19.054;2023-02-23T01:26:41;18.05;;;7.18;;
75890;SDS011;64571;47.512;19.054;2023-02-23T01:29:45;18.48;;;6.90;;
75890;SDS011;64571;47.512;19.054;2023-02-23T01:32:48;15.15;;;6.15;;
75890;SDS011;64571;47.512;19.054;2023-02-23T01:36:00;15.27;;;5.47;;
75890;SDS011;64571;47.512;19.054;2023-02-23T01:39:03;18.00;;;6.40;;
75890;SDS011;64571;47.512;19.054;2023-02-23T01:42:10;15.35;;;6.25;;
75890;SDS011;64571;47.512;19.054;2023-02-23T01:45:33;15.20;;;5.75;;
75890;SDS011;64571;47.512;19.054;2023-02-23T01:48:38;16.83;;;6.62;;
75890;SDS011;64571;47.512;19.054;2023-02-23T01:51:43;20.05;;;6.22;;
75890;SDS011;64571;47.512;19.054;2023-02-23T01:54:50;19.43;;;6.37;;
75890;SDS011;64571;47.512;19.054;2023-02-23T01:58:07;15.93;;;6.03;;
75890;SDS011;64571;47.512;19.054;2023-02-23T02:01:16;16.02;;;5.95;;
75890;SDS011;64571;47.512;19.054;2023-02-23T02:04:21;17.62;;;6.07;;
75890;SDS011;64571;47.512;19.054;2023-02-23T02:07:27;15.10;;;5.12;;
75890;SDS011;64571;47.512;19.054;2023-02-23T02:10:32;12.77;;;5.30;;
75890;SDS011;64571;47.512;19.054;2023-02-23T02:13:40;16.35;;;5.60;;
75890;SDS011;64571;47.512;19.054;2023-02-23T02:40:18;15.52;;;5.72;;
75890;SDS011;64571;47.512;19.054;2023-02-23T02:47:00;16.73;;;5.75;;
75890;SDS011;64571;47.512;19.054;2023-02-23T02:53:35;19.52;;;6.00;;
75890;SDS011;64571;47.512;19.054;2023-02-23T02:56:45;13.15;;;5.03;;
75890;SDS011;64571;47.512;19.054;2023-02-23T02:59:50;18.10;;;6.00;;
75890;SDS011;64571;47.512;19.054;2023-02-23T03:06:55;13.65;;;5.12;;
75890;SDS011;64571;47.512;19.054;2023-02-23T03:10:31;14.85;;;5.53;;
75890;SDS011;64571;47.512;19.054;2023-02-23T03:14:31;14.15;;;4.82;;
75890;SDS011;64571;47.512;19.054;2023-02-23T03:17:45;18.17;;;5.70;;
75890;SDS011;64571;47.512;19.054;2023-02-23T03:21:15;16.65;;;5.45;;
75890;SDS011;64571;47.512;19.054;2023-02-23T03:28:30;15.43;;;5.50;;
75890;SDS011;64571;47.512;19.054;2023-02-23T03:32:03;20.48;;;5.78;;
75890;SDS011;64571;47.512;19.054;2023-02-23T03:39:29;14.75;;;5.45;;
75890;SDS011;64571;47.512;19.054;2023-02-23T03:42:57;18.40;;;6.28;;
75890;SDS011;64571;47.512;19.054;2023-02-23T03:46:21;18.20;;;6.22;;
75890;SDS011;64571;47.512;19.054;2023-02-23T03:49:46;15.88;;;5.47;;
75890;SDS011;64571;47.512;19.054;2023-02-23T03:53:10;21.43;;;6.57;;
75890;SDS011;64571;47.512;19.054;2023-02-23T03:56:34;16.77;;;6.30;;
75890;SDS011;64571;47.512;19.054;2023-02-23T04:00:00;16.12;;;6.03;;
75890;SDS011;64571;47.512;19.054;2023-02-23T04:03:24;17.90;;;5.95;;
75890;SDS011;64571;47.512;19.054;2023-02-23T04:06:47;14.93;;;6.25;;
75890;SDS011;64571;47.512;19.054;2023-02-23T04:10:09;16.63;;;5.30;;
75890;SDS011;64571;47.512;19.054;2023-02-23T04:13:31;14.77;;;5.87;;
75890;SDS011;64571;47.512;19.054;2023-02-23T04:16:36;18.42;;;5.80;;
75890;SDS011;64571;47.512;19.054;2023-02-23T04:19:50;14.40;;;5.80;;
75890;SDS011;64571;47.512;19.054;2023-02-23T04:22:57;16.48;;;5.05;;
75890;SDS011;64571;47.512;19.054;2023-02-23T04:25:59;18.97;;;6.33;;
75890;SDS011;64571;47.512;19.054;2023-02-23T04:29:02;18.95;;;6.50;;
75890;SDS011;64571;47.512;19.054;2023-02-23T04:32:04;17.10;;;6.20;;
75890;SDS011;64571;47.512;19.054;2023-02-23T04:35:08;22.10;;;6.85;;
75890;SDS011;64571;47.512;19.054;2023-02-23T04:38:10;20.17;;;6.72;;
75890;SDS011;64571;47.512;19.054;2023-02-23T04:41:13;22.30;;;6.50;;
75890;SDS011;64571;47.512;19.054;2023-02-23T04:44:16;22.92;;;7.87;;
75890;SDS011;64571;47.512;19.054;2023-02-23T04:47:18;22.92;;;7.28;;
75890;SDS011;64571;47.512;19.054;2023-02-23T04:50:21;20.98;;;7.50;;
75890;SDS011;64571;47.512;19.054;2023-02-23T04:53:24;20.92;;;7.55;;
75890;SDS011;64571;47.512;19.054;2023-02-23T04:56:28;17.73;;;8.10;;
75890;SDS011;64571;47.512;19.054;2023-02-23T04:59:31;18.40;;;7.12;;
75890;SDS011;64571;47.512;19.054;2023-02-23T05:02:34;18.80;;;6.75;;
75890;SDS011;64571;47.512;19.054;2023-02-23T05:05:37;21.85;;;7.18;;
75890;SDS011;64571;47.512;19.054;2023-02-23T05:08:40;18.23;;;7.68;;
75890;SDS011;64571;47.512;19.054;2023-02-23T05:11:43;17.53;;;6.97;;
75890;SDS011;64571;47.512;19.054;2023-02-23T05:14:45;20.65;;;7.90;;
75890;SDS011;64571;47.512;19.054;2023-02-23T05:17:48;27.40;;;8.27;;
75890;SDS011;64571;47.512;19.054;2023-02-23T05:20:51;23.52;;;7.40;;
75890;SDS011;64571;47.512;19.054;2023-02-23T05:23:54;23.80;;;7.30;;
75890;SDS011;64571;47.512;19.054;2023-02-23T05:26:58;23.93;;;7.70;;
75890;SDS011;64571;47.512;19.054;2023-02-23T05:30:01;20.25;;;7.03;;
75890;SDS011;64571;47.512;19.054;2023-02-23T05:33:04;17.42;;;7.37;;
75890;SDS011;64571;47.512;19.054;2023-02-23T05:36:16;21.67;;;7.95;;
75890;SDS011;64571;47.512;19.054;2023-02-23T05:39:19;21.75;;;7.85;;
75890;SDS011;64571;47.512;19.054;2023-02-23T05:42:22;14.57;;;6.87;;
75890;SDS011;64571;47.512;19.054;2023-02-23T05:45:25;18.12;;;7.57;;
75890;SDS011;64571;47.512;19.054;2023-02-23T05:48:27;19.58;;;6.87;;
75890;SDS011;64571;47.512;19.054;2023-02-23T05:51:31;21.37;;;8.07;;
75890;SDS011;64571;47.512;19.054;2023-02-23T05:54:35;21.83;;;7.93;;
75890;SDS011;64571;47.512;19.054;2023-02-23T05:57:38;16.27;;;7.50;;
75890;SDS011;64571;47.512;19.054;2023-02-23T06:00:42;26.15;;;7.85;;
75890;SDS011;64571;47.512;19.054;2023-02-23T06:03:45;19.83;;;7.12;;
75890;SDS011;64571;47.512;19.054;2023-02-23T06:06:48;23.92;;;8.57;;
75890;SDS011;64571;47.512;19.054;2023-02-23T06:09:51;16.83;;;6.95;;
75890;SDS011;64571;47.512;19.054;2023-02-23T06:12:53;18.00;;;6.50;;
75890;SDS011;64571;47.512;19.054;2023-02-23T06:15:56;18.73;;;6.50;;
75890;SDS011;64571;47.512;19.054;2023-02-23T06:19:00;19.17;;;7.80;;
75890;SDS011;64571;47.512;19.054;2023-02-23T06:22:02;24.77;;;7.18;;
75890;SDS011;64571;47.512;19.054;2023-02-23T06:25:05;22.50;;;7.03;;
75890;SDS011;64571;47.512;19.054;2023-02-23T06:28:14;20.13;;;7.30;;
75890;SDS011;64571;47.512;19.054;2023-02-23T06:31:16;25.48;;;7.62;;
75890;SDS011;64571;47.512;19.054;2023-02-23T06:34:19;18.27;;;6.70;;
75890;SDS011;64571;47.512;19.054;2023-02-23T06:37:22;16.45;;;7.40;;
75890;SDS011;64571;47.512;19.054;2023-02-23T06:40:25;21.20;;;7.62;;
75890;SDS011;64571;47.512;19.054;2023-02-23T06:43:27;20.87;;;7.23;;
75890;SDS011;64571;47.512;19.054;2023-02-23T06:46:30;24.52;;;8.88;;
75890;SDS011;64571;47.512;19.054;2023-02-23T06:49:34;22.92;;;8.32;;
75890;SDS011;64571;47.512;19.054;2023-02-23T06:52:38;23.33;;;7.87;;
75890;SDS011;64571;47.512;19.054;2023-02-23T06:55:40;20.50;;;8.30;;
75890;SDS011;64571;47.512;19.054;2023-02-23T06:58:43;33.33;;;8.40;;
75890;SDS011;64571;47.512;19.054;2023-02-23T07:01:46;21.87;;;8.05;;
75890;SDS011;64571;47.512;19.054;2023-02-23T07:04:48;21.02;;;8.45;;
75890;SDS011;64571;47.512;19.054;2023-02-23T07:07:51;23.67;;;8.43;;
75890;SDS011;64571;47.512;19.054;2023-02-23T07:10:53;24.12;;;8.98;;
75890;SDS011;64571;47.512;19.054;2023-02-23T07:13:57;26.27;;;8.90;;
75890;SDS011;64571;47.512;19.054;2023-02-23T07:17:00;15.98;;;7.25;;
75890;SDS011;64571;47.512;19.054;2023-02-23T07:20:03;20.52;;;8.27;;
75890;SDS011;64571;47.512;19.054;2023-02-23T07:23:06;23.95;;;8.50;;
75890;SDS011;64571;47.512;19.054;2023-02-23T07:26:08;21.40;;;8.25;;
75890;SDS011;64571;47.512;19.054;2023-02-23T07:29:11;18.40;;;7.43;;
75890;SDS011;64571;47.512;19.054;2023-02-23T07:32:14;19.42;;;8.20;;
75890;SDS011;64571;47.512;19.054;2023-02-23T07:35:17;19.52;;;8.13;;
75890;SDS011;64571;47.512;19.054;2023-02-23T07:38:19;20.75;;;9.02;;
75890;SDS011;64571;47.512;19.054;2023-02-23T07:41:22;20.85;;;7.40;;
75890;SDS011;64571;47.512;19.054;2023-02-23T07:44:25;19.63;;;7.83;;
75890;SDS011;64571;47.512;19.054;2023-02-23T07:47:27;20.20;;;8.10;;
75890;SDS011;64571;47.512;19.054;2023-02-23T07:50:32;22.33;;;7.62;;
75890;SDS011;64571;47.512;19.054;2023-02-23T07:53:34;19.08;;;7.95;;
75890;SDS011;64571;47.512;19.054;2023-02-23T07:56:37;20.35;;;8.38;;
75890;SDS011;64571;47.512;19.054;2023-02-23T07:59:39;21.67;;;8.47;;
75890;SDS011;64571;47.512;19.054;2023-02-23T08:02:42;23.83;;;8.50;;
75890;SDS011;64571;47.512;19.054;2023-02-23T08:05:45;22.62;;;8.30;;
75890;SDS011;64571;47.512;19.054;2023-02-23T08:08:47;16.45;;;7.90;;
75890;SDS011;64571;47.512;19.054;2023-02-23T08:11:50;21.30;;;8.18;;
75890;SDS011;64571;47.512;19.054;2023-02-23T08:14:52;19.87;;;7.67;;
75890;SDS011;64571;47.512;19.054;2023-02-23T08:17:55;24.55;;;8.18;;
75890;SDS011;64571;47.512;19.054;2023-02-23T08:20:59;21.12;;;8.00;;
75890;SDS011;64571;47.512;19.054;2023-02-23T08:24:03;19.17;;;7.87;;
75890;SDS011;64571;47.512;19.054;2023-02-23T08:27:05;23.12;;;8.70;;
75890;SDS011;64571;47.512;19.054;2023-02-23T08:30:08;28.47;;;8.17;;
75890;SDS011;64571;47.512;19.054;2023-02-23T08:33:11;19.45;;;8.00;;
75890;SDS011;64571;47.512;19.054;2023-02-23T08:36:14;19.23;;;7.97;;
75890;SDS011;64571;47.512;19.054;2023-02-23T08:39:17;20.55;;;8.38;;
75890;SDS011;64571;47.512;19.054;2023-02-23T08:42:20;20.45;;;7.30;;
75890;SDS011;64571;47.512;19.054;2023-02-23T08:45:22;20.03;;;7.53;;
75890;SDS011;64571;47.512;19.054;2023-02-23T08:48:25;15.43;;;6.45;;
75890;SDS011;64571;47.512;19.054;2023-02-23T08:51:27;20.60;;;8.63;;
75890;SDS011;64571;47.512;19.054;2023-02-23T08:54:30;26.17;;;8.02;;
75890;SDS011;64571;47.512;19.054;2023-02-23T08:57:33;17.83;;;7.55;;
75890;SDS011;64571;47.512;19.054;2023-02-23T09:00:37;16.93;;;6.87;;
75890;SDS011;64571;47.512;19.054;2023-02-23T09:03:39;18.95;;;7.07;;
75890;SDS011;64571;47.512;19.054;2023-02-23T09:06:42;34.10;;;13.48;;
75890;SDS011;64571;47.512;19.054;2023-02-23T09:09:45;17.85;;;7.15;;
75890;SDS011;64571;47.512;19.054;2023-02-23T09:12:48;20.55;;;6.57;;
75890;SDS011;64571;47.512;19.054;2023-02-23T09:15:50;15.83;;;6.87;;
75890;SDS011;64571;47.512;19.054;2023-02-23T09:18:53;20.23;;;7.45;;
75890;SDS011;64571;47.512;19.054;2023-02-23T09:21:55;17.50;;;7.82;;
75890;SDS011;64571;47.512;19.054;2023-02-23T09:24:58;15.65;;;6.65;;
75890;SDS011;64571;47.512;19.054;2023-02-23T09:28:00;19.25;;;7.60;;
75890;SDS011;64571;47.512;19.054;2023-02-23T09:31:04;19.13;;;7.57;;
75890;SDS011;64571;47.512;19.054;2023-02-23T09:34:08;18.95;;;6.80;;
75890;SDS011;64571;47.512;19.054;2023-02-23T09:37:11;17.30;;;6.72;;
75890;SDS011;64571;47.512;19.054;2023-02-23T09:40:15;21.58;;;7.35;;
75890;SDS011;64571;47.512;19.054;2023-02-23T09:43:31;15.55;;;6.78;;
75890;SDS011;64571;47.512;19.054;2023-02-23T09:46:50;14.90;;;6.90;;
75890;SDS011;64571;47.512;19.054;2023-02-23T09:49:55;15.60;;;6.65;;
75890;SDS011;64571;47.512;19.054;2023-02-23T09:53:01;17.00;;;7.40;;
75890;SDS011;64571;47.512;19.054;2023-02-23T09:56:42;18.23;;;7.62;;
75890;SDS011;64571;47.512;19.054;2023-02-23T09:59:47;18.98;;;6.85;;
75890;SDS011;64571;47.512;19.054;2023-02-23T10:06:12;20.08;;;7.30;;
75890;SDS011;64571;47.512;19.054;2023-02-23T10:15:52;17.23;;;7.60;;
75890;SDS011;64571;47.512;19.054;2023-02-23T10:22:21;21.08;;;7.15;;
75890;SDS011;64571;47.512;19.054;2023-02-23T10:25:25;13.65;;;6.28;;
75890;SDS011;64571;47.512;19.054;2023-02-23T10:28:32;21.87;;;7.10;;
75890;SDS011;64571;47.512;19.054;2023-02-23T10:31:41;16.08;;;6.95;;
75890;SDS011;64571;47.512;19.054;2023-02-23T10:34:51;18.30;;;7.13;;
75890;SDS011;64571;47.512;19.054;2023-02-23T10:37:58;21.25;;;6.97;;
75890;SDS011;64571;47.512;19.054;2023-02-23T10:41:02;17.98;;;6.37;;
75890;SDS011;64571;47.512;19.054;2023-02-23T10:44:10;18.55;;;7.47;;
75890;SDS011;64571;47.512;19.054;2023-02-23T10:47:30;16.35;;;7.37;;
75890;SDS011;64571;47.512;19.054;2023-02-23T10:50:36;14.53;;;6.57;;
75890;SDS011;64571;47.512;19.054;2023-02-23T10:53:40;21.00;;;6.82;;
75890;SDS011;64571;47.512;19.054;2023-02-23T10:56:43;16.90;;;7.10;;
75890;SDS011;64571;47.512;19.054;2023-02-23T11:07:16;18.30;;;6.77;;
75890;SDS011;64571;47.512;19.054;2023-02-23T11:10:24;18.00;;;7.68;;
75890;SDS011;64571;47.512;19.054;2023-02-23T11:13:33;18.23;;;7.97;;
75890;SDS011;64571;47.512;19.054;2023-02-23T11:16:40;23.02;;;7.40;;
75890;SDS011;64571;47.512;19.054;2023-02-23T11:19:42;18.77;;;7.78;;
75890;SDS011;64571;47.512;19.054;2023-02-23T11:22:47;14.93;;;6.67;;
75890;SDS011;64571;47.512;19.054;2023-02-23T11:25:50;21.62;;;6.95;;
75890;SDS011;64571;47.512;19.054;2023-02-23T11:29:03;17.75;;;6.65;;
75890;SDS011;64571;47.512;19.054;2023-02-23T11:32:21;18.05;;;7.00;;
75890;SDS011;64571;47.512;19.054;2023-02-23T11:35:30;15.93;;;6.78;;
75890;SDS011;64571;47.512;19.054;2023-02-23T11:38:33;18.40;;;7.03;;
75890;SDS011;64571;47.512;19.054;2023-02-23T11:41:36;18.37;;;6.60;;
75890;SDS011;64571;47.512;19.054;2023-02-23T11:44:39;19.52;;;6.90;;
75890;SDS011;64571;47.512;19.054;2023-02-23T11:47:46;18.90;;;6.60;;
75890;SDS011;64571;47.512;19.054;2023-02-23T11:50:52;16.90;;;6.50;;
75890;SDS011;64571;47.512;19.054;2023-02-23T11:53:56;17.50;;;6.43;;
75890;SDS011;64571;47.512;19.054;2023-02-23T11:56:59;15.32;;;6.60;;
75890;SDS011;64571;47.512;19.054;2023-02-23T12:00:09;16.50;;;6.45;;
75890;SDS011;64571;47.512;19.054;2023-02-23T12:03:16;19.83;;;7.70;;
75890;SDS011;64571;47.512;19.054;2023-02-23T12:06:33;14.43;;;6.53;;
75890;SDS011;64571;47.512;19.054;2023-02-23T12:09:38;17.60;;;7.30;;
75890;SDS011;64571;47.512;19.054;2023-02-23T12:13:03;16.33;;;6.45;;
75890;SDS011;64571;47.512;19.054;2023-02-23T12:20:29;18.92;;;6.65;;
75890;SDS011;64571;47.512;19.054;2023-02-23T12:23:27;17.15;;;6.85;;
75890;SDS011;64571;47.512;19.054;2023-02-23T12:26:44;15.37;;;5.33;;
75890;SDS011;64571;47.512;19.054;2023-02-23T12:30:15;17.52;;;5.85;;
75890;SDS011;64571;47.512;19.054;2023-02-23T12:36:54;14.77;;;6.50;;
75890;SDS011;64571;47.512;19.054;2023-02-23T12:43:46;14.77;;;6.10;;
75890;SDS011;64571;47.512;19.054;2023-02-23T12:46:54;13.38;;;6.37;;
75890;SDS011;64571;47.512;19.054;2023-02-23T12:50:12;22.17;;;8.02;;
75890;SDS011;64571;47.512;19.054;2023-02-23T12:53:30;21.05;;;7.35;;
75890;SDS011;64571;47.512;19.054;2023-02-23T13:00:16;16.63;;;6.50;;
75890;SDS011;64571;47.512;19.054;2023-02-23T13:03:39;15.95;;;6.90;;
75890;SDS011;64571;47.512;19.054;2023-02-23T13:06:57;18.12;;;6.87;;
75890;SDS011;64571;47.512;19.054;2023-02-23T13:13:59;16.60;;;6.40;;
75890;SDS011;64571;47.512;19.054;2023-02-23T13:17:24;13.87;;;6.93;;
75890;SDS011;64571;47.512;19.054;2023-02-23T13:20:50;22.85;;;7.85;;
75890;SDS011;64571;47.512;19.054;2023-02-23T13:24:06;16.85;;;7.60;;
75890;SDS011;64571;47.512;19.054;2023-02-23T13:27:18;17.08;;;7.05;;
75890;SDS011;64571;47.512;19.054;2023-02-23T13:30:29;24.67;;;7.80;;
75890;SDS011;64571;47.512;19.054;2023-02-23T13:33:38;16.63;;;6.63;;
75890;SDS011;64571;47.512;19.054;2023-02-23T13:36:45;18.98;;;7.35;;
75890;SDS011;64571;47.512;19.054;2023-02-23T13:46:51;14.40;;;6.47;;
75890;SDS011;64571;47.512;19.054;2023-02-23T13:50:28;17.20;;;8.03;;
75890;SDS011;64571;47.512;19.054;2023-02-23T13:53:38;14.23;;;6.97;;
75890;SDS011;64571;47.512;19.054;2023-02-23T13:56:41;22.42;;;7.43;;
75890;SDS011;64571;47.512;19.054;2023-02-23T13:59:49;21.30;;;7.90;;
75890;SDS011;64571;47.512;19.054;2023-02-23T14:02:52;20.17;;;8.63;;
75890;SDS011;64571;47.512;19.054;2023-02-23T14:05:56;18.10;;;7.93;;
75890;SDS011;64571;47.512;19.054;2023-02-23T14:09:12;20.95;;;9.30;;
75890;SDS011;64571;47.512;19.054;2023-02-23T14:12:33;18.98;;;7.95;;
75890;SDS011;64571;47.512;19.054;2023-02-23T14:15:44;15.55;;;6.87;;
75890;SDS011;64571;47.512;19.054;2023-02-23T14:19:11;18.65;;;7.90;;
75890;SDS011;64571;47.512;19.054;2023-02-23T14:22:32;16.60;;;7.57;;
75890;SDS011;64571;47.512;19.054;2023-02-23T14:28:39;18.02;;;7.25;;
75890;SDS011;64571;47.512;19.054;2023-02-23T14:31:54;23.52;;;8.35;;
75890;SDS011;64571;47.512;19.054;2023-02-23T14:35:07;22.67;;;8.27;;
75890;SDS011;64571;47.512;19.054;2023-02-23T14:38:34;17.30;;;7.93;;
75890;SDS011;64571;47.512;19.054;2023-02-23T14:41:53;18.55;;;8.52;;
75890;SDS011;64571;47.512;19.054;2023-02-23T14:45:02;17.08;;;8.05;;
75890;SDS011;64571;47.512;19.054;2023-02-23T14:48:09;19.35;;;8.25;;
75890;SDS011;64571;47.512;19.054;2023-02-23T14:51:23;19.02;;;8.25;;
75890;SDS011;64571;47.512;19.054;2023-02-23T14:54:34;17.57;;;7.47;;
75890;SDS011;64571;47.512;19.054;2023-02-23T14:57:40;15.05;;;6.62;;
75890;SDS011;64571;47.512;19.054;2023-02-23T15:00:44;20.23;;;7.97;;
75890;SDS011;64571;47.512;19.054;2023-02-23T15:07:14;21.48;;;7.82;;
75890;SDS011;64571;47.512;19.054;2023-02-23T15:13:41;17.45;;;7.25;;
75890;SDS011;64571;47.512;19.054;2023-02-23T15:16:49;23.15;;;8.30;;
75890;SDS011;64571;47.512;19.054;2023-02-23T15:19:53;18.40;;;8.27;;
75890;SDS011;64571;47.512;19.054;2023-02-23T15:23:18;21.58;;;8.23;;
75890;SDS011;64571;47.512;19.054;2023-02-23T15:29:34;21.08;;;7.57;;
75890;SDS011;64571;47.512;19.054;2023-02-23T15:32:37;17.02;;;8.13;;
75890;SDS011;64571;47.512;19.054;2023-02-23T15:36:24;20.20;;;7.10;;
75890;SDS011;64571;47.512;19.054;2023-02-23T15:39:11;18.15;;;7.18;;
75890;SDS011;64571;47.512;19.054;2023-02-23T15:42:40;19.83;;;7.77;;
75890;SDS011;64571;47.512;19.054;2023-02-23T15:45:49;16.33;;;6.70;;
75890;SDS011;64571;47.512;19.054;2023-02-23T15:48:57;22.52;;;7.93;;
75890;SDS011;64571;47.512;19.054;2023-02-23T15:52:08;18.70;;;7.40;;
75890;SDS011;64571;47.512;19.054;2023-02-23T15:55:22;20.05;;;8.52;;
75890;SDS011;64571;47.512;19.054;2023-02-23T15:58:29;19.90;;;7.60;;
75890;SDS011;64571;47.512;19.054;2023-02-23T16:01:39;17.23;;;7.03;;
75890;SDS011;64571;47.512;19.054;2023-02-23T16:04:44;20.65;;;6.97;;
75890;SDS011;64571;47.512;19.054;2023-02-23T16:08:04;24.70;;;7.70;;
75890;SDS011;64571;47.512;19.054;2023-02-23T16:11:24;15.02;;;6.62;;
75890;SDS011;64571;47.512;19.054;2023-02-23T16:17:47;19.95;;;7.65;;
75890;SDS011;64571;47.512;19.054;2023-02-23T16:21:14;16.00;;;7.28;;
75890;SDS011;64571;47.512;19.054;2023-02-23T16:24:23;17.15;;;6.72;;
75890;SDS011;64571;47.512;19.054;2023-02-23T16:27:28;15.07;;;6.43;;
75890;SDS011;64571;47.512;19.054;2023-02-23T16:30:40;16.73;;;7.43;;
75890;SDS011;64571;47.512;19.054;2023-02-23T16:33:45;19.08;;;7.53;;
75890;SDS011;64571;47.512;19.054;2023-02-23T16:37:10;15.02;;;7.18;;
75890;SDS011;64571;47.512;19.054;2023-02-23T16:40:18;28.77;;;18.48;;
75890;SDS011;64571;47.512;19.054;2023-02-23T16:43:22;19.17;;;8.00;;
75890;SDS011;64571;47.512;19.054;2023-02-23T16:46:26;18.03;;;7.93;;
75890;SDS011;64571;47.512;19.054;2023-02-23T16:49:49;15.93;;;7.28;;
75890;SDS011;64571;47.512;19.054;2023-02-23T16:52:52;19.15;;;8.18;;
75890;SDS011;64571;47.512;19.054;2023-02-23T16:55:56;18.95;;;7.95;;
75890;SDS011;64571;47.512;19.054;2023-02-23T16:59:02;17.87;;;7.47;;
75890;SDS011;64571;47.512;19.054;2023-02-23T17:02:08;21.47;;;8.50;;
75890;SDS011;64571;47.512;19.054;2023-02-23T17:05:15;17.55;;;8.63;;
75890;SDS011;64571;47.512;19.054;2023-02-23T17:08:20;19.40;;;8.02;;
75890;SDS011;64571;47.512;19.054;2023-02-23T17:11:22;18.77;;;8.30;;
75890;SDS011;64571;47.512;19.054;2023-02-23T17:14:25;19.77;;;7.93;;
75890;SDS011;64571;47.512;19.054;2023-02-23T17:17:29;18.83;;;8.13;;
75890;SDS011;64571;47.512;19.054;2023-02-23T17:20:32;18.52;;;8.30;;
75890;SDS011;64571;47.512;19.054;2023-02-23T17:23:36;20.15;;;7.95;;
75890;SDS011;64571;47.512;19.054;2023-02-23T17:26:43;17.15;;;7.65;;
75890;SDS011;64571;47.512;19.054;2023-02-23T17:29:46;19.80;;;7.55;;
75890;SDS011;64571;47.512;19.054;2023-02-23T17:32:49;17.27;;;7.60;;
75890;SDS011;64571;47.512;19.054;2023-02-23T17:35:53;18.08;;;7.62;;
75890;SDS011;64571;47.512;19.054;2023-02-23T17:38:56;21.25;;;8.10;;
75890;SDS011;64571;47.512;19.054;2023-02-23T17:42:01;18.62;;;8.25;;
75890;SDS011;64571;47.512;19.054;2023-02-23T17:45:05;19.90;;;7.55;;
75890;SDS011;64571;47.512;19.054;2023-02-23T17:48:08;18.67;;;7.77;;
75890;SDS011;64571;47.512;19.054;2023-02-23T17:51:12;16.95;;;6.87;;
75890;SDS011;64571;47.512;19.054;2023-02-23T17:54:20;15.57;;;7.40;;
75890;SDS011;64571;47.512;19.054;2023-02-23T17:57:23;17.37;;;7.60;;
75890;SDS011;64571;47.512;19.054;2023-02-23T18:00:26;18.00;;;8.38;;
75890;SDS011;64571;47.512;19.054;2023-02-23T18:03:30;19.13;;;7.37;;
75890;SDS011;64571;47.512;19.054;2023-02-23T18:06:35;21.85;;;7.93;;
75890;SDS011;64571;47.512;19.054;2023-02-23T18:09:37;19.02;;;8.15;;
75890;SDS011;64571;47.512;19.054;2023-02-23T18:12:40;15.90;;;7.35;;
75890;SDS011;64571;47.512;19.054;2023-02-23T18:15:47;23.48;;;8.27;;
75890;SDS011;64571;47.512;19.054;2023-02-23T18:18:53;21.27;;;8.03;;
75890;SDS011;64571;47.512;19.054;2023-02-23T18:21:57;18.20;;;8.38;;
75890;SDS011;64571;47.512;19.054;2023-02-23T18:25:00;22.00;;;8.73;;
75890;SDS011;64571;47.512;19.054;2023-02-23T18:28:03;22.77;;;9.73;;
75890;SDS011;64571;47.512;19.054;2023-02-23T18:31:05;23.15;;;10.07;;
75890;SDS011;64571;47.512;19.054;2023-02-23T18:34:08;22.43;;;9.77;;
75890;SDS011;64571;47.512;19.054;2023-02-23T18:37:11;26.87;;;10.57;;
75890;SDS011;64571;47.512;19.054;2023-02-23T18:40:13;24.40;;;10.27;;
75890;SDS011;64571;47.512;19.054;2023-02-23T18:43:16;21.95;;;9.80;;
75890;SDS011;64571;47.512;19.054;2023-02-23T18:46:19;23.23;;;9.23;;
75890;SDS011;64571;47.512;19.054;2023-02-23T18:49:22;25.27;;;9.83;;
75890;SDS011;64571;47.512;19.054;2023-02-23T18:52:26;24.75;;;10.45;;
75890;SDS011;64571;47.512;19.054;2023-02-23T18:55:28;21.20;;;9.38;;
75890;SDS011;64571;47.512;19.054;2023-02-23T18:58:31;22.17;;;9.95;;
75890;SDS011;64571;47.512;19.054;2023-02-23T19:01:34;24.95;;;10.55;;
75890;SDS011;64571;47.512;19.054;2023-02-23T19:04:40;21.43;;;9.70;;
75890;SDS011;64571;47.512;19.054;2023-02-23T19:07:42;21.95;;;9.73;;
75890;SDS011;64571;47.512;19.054;2023-02-23T19:10:45;27.98;;;11.57;;
75890;SDS011;64571;47.512;19.054;2023-02-23T19:13:53;23.08;;;10.20;;
75890;SDS011;64571;47.512;19.054;2023-02-23T19:16:57;20.35;;;10.25;;
75890;SDS011;64571;47.512;19.054;2023-02-23T19:19:59;26.83;;;13.27;;
75890;SDS011;64571;47.512;19.054;2023-02-23T19:23:03;27.67;;;11.60;;
75890;SDS011;64571;47.512;19.054;2023-02-23T19:26:06;23.80;;;10.90;;
75890;SDS011;64571;47.512;19.054;2023-02-23T19:29:09;29.85;;;14.32;;
75890;SDS011;64571;47.512;19.054;2023-02-23T19:32:12;25.52;;;11.80;;
75890;SDS011;64571;47.512;19.054;2023-02-23T19:35:19;30.03;;;13.00;;
75890;SDS011;64571;47.512;19.054;2023-02-23T19:38:22;33.95;;;12.02;;
75890;SDS011;64571;47.512;19.054;2023-02-23T19:41:24;36.10;;;14.80;;
75890;SDS011;64571;47.512;19.054;2023-02-23T19:44:27;35.47;;;13.55;;
75890;SDS011;64571;47.512;19.054;2023-02-23T19:47:30;29.25;;;14.10;;
75890;SDS011;64571;47.512;19.054;2023-02-23T19:50:33;32.93;;;14.70;;
75890;SDS011;64571;47.512;19.054;2023-02-23T19:53:37;30.33;;;14.05;;
75890;SDS011;64571;47.512;19.054;2023-02-23T19:56:39;29.52;;;13.75;;
75890;SDS011;64571;47.512;19.054;2023-02-23T19:59:42;31.60;;;12.90;;
75890;SDS011;64571;47.512;19.054;2023-02-23T20:02:48;28.73;;;13.73;;